sensor_id;sensor_type;location;lat;lon;timestamp;temperature;humidity
13251;DHT22;6692;50.710;7.180;2023-12-04T00:01:30;1.50;99.90
13251;DHT22;6692;50.710;7.180;2023-12-04T00:03:31;1.50;99.90
13251;DHT22;6692;50.710;7.180;2023-12-04T00:05:33;1.50;99.90
13251;DHT22;6692;50.710;7.180;2023-12-04T00:07:33;1.40;99.90
13251;DHT22;6692;50.710;7.180;2023-12-04T00:09:34;1.40;99.90
13251;DHT22;6692;50.710;7.180;2023-12-04T00:11:35;1.50;99.90
13251;DHT22;6692;50.710;7.180;2023-12-04T00:13:36;1.40;99.90
13251;DHT22;6692;50.710;7.180;2023-12-04T00:15:36;1.50;99.90
13251;DHT22;6692;50.710;7.180;2023-12-04T00:17:38;1.40;99.90
13251;DHT22;6692;50.710;7.180;2023-12-04T00:19:39;1.40;99.90
13251;DHT22;6692;50.710;7.180;2023-12-04T00:21:40;1.50;99.90
13251;DHT22;6692;50.710;7.180;2023-12-04T00:23:40;1.40;99.90
13251;DHT22;6692;50.710;7.180;2023-12-04T00:25:41;1.40;99.90
13251;DHT22;6692;50.710;7.180;2023-12-04T00:27:42;1.40;99.90
13251;DHT22;6692;50.710;7.180;2023-12-04T00:29:43;1.40;99.90
13251;DHT22;6692;50.710;7.180;2023-12-04T00:31:44;1.40;99.90
13251;DHT22;6692;50.710;7.180;2023-12-04T00:33:45;1.40;99.90
13251;DHT22;6692;50.710;7.180;2023-12-04T00:35:46;1.40;99.90
13251;DHT22;6692;50.710;7.180;2023-12-04T00:37:48;1.40;99.90
13251;DHT22;6692;50.710;7.180;2023-12-04T00:39:49;1.40;99.90
13251;DHT22;6692;50.710;7.180;2023-12-04T00:41:50;1.40;99.90
13251;DHT22;6692;50.710;7.180;2023-12-04T00:43:51;1.40;99.90
13251;DHT22;6692;50.710;7.180;2023-12-04T00:45:53;1.40;99.90
13251;DHT22;6692;50.710;7.180;2023-12-04T00:47:54;1.40;99.90
13251;DHT22;6692;50.710;7.180;2023-12-04T00:49:55;1.40;99.90
13251;DHT22;6692;50.710;7.180;2023-12-04T00:51:56;1.40;99.90
13251;DHT22;6692;50.710;7.180;2023-12-04T00:53:56;1.40;99.90
13251;DHT22;6692;50.710;7.180;2023-12-04T00:55:57;1.40;99.90
13251;DHT22;6692;50.710;7.180;2023-12-04T00:57:58;1.40;99.90
13251;DHT22;6692;50.710;7.180;2023-12-04T00:59:59;1.50;99.90
13251;DHT22;6692;50.710;7.180;2023-12-04T01:02:00;1.50;99.90
13251;DHT22;6692;50.710;7.180;2023-12-04T01:04:00;1.50;99.90
13251;DHT22;6692;50.710;7.180;2023-12-04T01:06:01;1.50;99.90
13251;DHT22;6692;50.710;7.180;2023-12-04T01:08:02;1.40;99.90
13251;DHT22;6692;50.710;7.180;2023-12-04T01:10:04;1.40;99.90
13251;DHT22;6692;50.710;7.180;2023-12-04T01:12:05;1.50;99.90
13251;DHT22;6692;50.710;7.180;2023-12-04T01:14:06;1.40;99.90
13251;DHT22;6692;50.710;7.180;2023-12-04T01:16:07;1.40;99.90
13251;DHT22;6692;50.710;7.180;2023-12-04T01:18:08;1.40;99.90
13251;DHT22;6692;50.710;7.180;2023-12-04T01:20:09;1.40;99.90
13251;DHT22;6692;50.710;7.180;2023-12-04T01:22:11;1.30;99.90
13251;DHT22;6692;50.710;7.180;2023-12-04T01:24:12;1.30;99.90
13251;DHT22;6692;50.710;7.180;2023-12-04T01:26:12;1.30;99.90
13251;DHT22;6692;50.710;7.180;2023-12-04T01:28:13;1.30;99.90
13251;DHT22;6692;50.710;7.180;2023-12-04T01:30:14;1.40;99.90
13251;DHT22;6692;50.710;7.180;2023-12-04T01:32:15;1.30;99.90
13251;DHT22;6692;50.710;7.180;2023-12-04T01:34:17;1.40;99.90
13251;DHT22;6692;50.710;7.180;2023-12-04T01:36:18;1.30;99.90
13251;DHT22;6692;50.710;7.180;2023-12-04T01:38:19;1.30;99.90
13251;DHT22;6692;50.710;7.180;2023-12-04T01:40:20;1.30;99.90
13251;DHT22;6692;50.710;7.180;2023-12-04T01:42:20;1.30;99.90
13251;DHT22;6692;50.710;7.180;2023-12-04T01:44:21;1.40;99.90
13251;DHT22;6692;50.710;7.180;2023-12-04T01:46:23;1.30;99.90
13251;DHT22;6692;50.710;7.180;2023-12-04T01:48:23;1.30;99.90
13251;DHT22;6692;50.710;7.180;2023-12-04T01:50:24;1.40;99.90
13251;DHT22;6692;50.710;7.180;2023-12-04T01:52:25;1.30;99.90
13251;DHT22;6692;50.710;7.180;2023-12-04T01:54:26;1.30;99.90
13251;DHT22;6692;50.710;7.180;2023-12-04T01:56:27;1.30;99.90
13251;DHT22;6692;50.710;7.180;2023-12-04T01:58:28;1.30;99.90
13251;DHT22;6692;50.710;7.180;2023-12-04T02:00:29;1.30;99.90
13251;DHT22;6692;50.710;7.180;2023-12-04T02:02:29;1.30;99.90
13251;DHT22;6692;50.710;7.180;2023-12-04T02:04:30;1.40;99.90
13251;DHT22;6692;50.710;7.180;2023-12-04T02:06:31;1.30;99.90
13251;DHT22;6692;50.710;7.180;2023-12-04T02:08:31;1.40;99.90
13251;DHT22;6692;50.710;7.180;2023-12-04T02:10:32;1.40;99.90
13251;DHT22;6692;50.710;7.180;2023-12-04T02:12:33;1.30;99.90
13251;DHT22;6692;50.710;7.180;2023-12-04T02:14:34;1.40;99.90
13251;DHT22;6692;50.710;7.180;2023-12-04T02:16:36;1.40;99.90
13251;DHT22;6692;50.710;7.180;2023-12-04T02:18:36;1.30;99.90
13251;DHT22;6692;50.710;7.180;2023-12-04T02:20:37;1.30;99.90
13251;DHT22;6692;50.710;7.180;2023-12-04T02:22:37;1.30;99.90
13251;DHT22;6692;50.710;7.180;2023-12-04T02:24:38;1.30;99.90
13251;DHT22;6692;50.710;7.180;2023-12-04T02:26:44;1.30;99.90
13251;DHT22;6692;50.710;7.180;2023-12-04T02:28:45;1.30;99.90
13251;DHT22;6692;50.710;7.180;2023-12-04T02:30:45;1.30;99.90
13251;DHT22;6692;50.710;7.180;2023-12-04T02:32:46;1.30;99.90
13251;DHT22;6692;50.710;7.180;2023-12-04T02:34:46;1.30;99.90
13251;DHT22;6692;50.710;7.180;2023-12-04T02:36:48;1.30;99.90
13251;DHT22;6692;50.710;7.180;2023-12-04T02:38:50;1.30;99.90
13251;DHT22;6692;50.710;7.180;2023-12-04T02:40:51;1.30;99.90
13251;DHT22;6692;50.710;7.180;2023-12-04T02:42:51;1.30;99.90
13251;DHT22;6692;50.710;7.180;2023-12-04T02:44:53;1.40;99.90
13251;DHT22;6692;50.710;7.180;2023-12-04T02:46:54;1.30;99.90
13251;DHT22;6692;50.710;7.180;2023-12-04T02:48:54;1.40;99.90
13251;DHT22;6692;50.710;7.180;2023-12-04T02:50:55;1.40;99.90
13251;DHT22;6692;50.710;7.180;2023-12-04T02:52:57;1.40;99.90
13251;DHT22;6692;50.710;7.180;2023-12-04T02:54:58;1.40;99.90
13251;DHT22;6692;50.710;7.180;2023-12-04T02:56:59;1.30;99.90
13251;DHT22;6692;50.710;7.180;2023-12-04T02:59:00;1.40;99.90
13251;DHT22;6692;50.710;7.180;2023-12-04T03:01:01;1.30;99.90
13251;DHT22;6692;50.710;7.180;2023-12-04T03:03:02;1.30;99.90
13251;DHT22;6692;50.710;7.180;2023-12-04T03:05:03;1.40;99.90
13251;DHT22;6692;50.710;7.180;2023-12-04T03:07:05;1.30;99.90
13251;DHT22;6692;50.710;7.180;2023-12-04T03:09:06;1.30;99.90
13251;DHT22;6692;50.710;7.180;2023-12-04T03:11:11;1.30;99.90
13251;DHT22;6692;50.710;7.180;2023-12-04T03:13:14;1.30;99.90
13251;DHT22;6692;50.710;7.180;2023-12-04T03:15:15;1.30;99.90
13251;DHT22;6692;50.710;7.180;2023-12-04T03:17:16;1.30;99.90
13251;DHT22;6692;50.710;7.180;2023-12-04T03:19:16;1.30;99.90
13251;DHT22;6692;50.710;7.180;2023-12-04T03:21:17;1.30;99.90
13251;DHT22;6692;50.710;7.180;2023-12-04T03:23:18;1.30;99.90
13251;DHT22;6692;50.710;7.180;2023-12-04T03:25:19;1.30;99.90
13251;DHT22;6692;50.710;7.180;2023-12-04T03:27:20;1.30;99.90
13251;DHT22;6692;50.710;7.180;2023-12-04T03:29:21;1.30;99.90
13251;DHT22;6692;50.710;7.180;2023-12-04T03:31:22;1.30;99.90
13251;DHT22;6692;50.710;7.180;2023-12-04T03:33:23;1.30;99.90
13251;DHT22;6692;50.710;7.180;2023-12-04T03:35:25;1.30;99.90
13251;DHT22;6692;50.710;7.180;2023-12-04T03:37:25;1.30;99.90
13251;DHT22;6692;50.710;7.180;2023-12-04T03:39:26;1.30;99.90
13251;DHT22;6692;50.710;7.180;2023-12-04T03:41:27;1.30;99.90
13251;DHT22;6692;50.710;7.180;2023-12-04T03:43:28;1.30;99.90
13251;DHT22;6692;50.710;7.180;2023-12-04T03:45:29;1.30;99.90
13251;DHT22;6692;50.710;7.180;2023-12-04T03:47:30;1.20;99.90
13251;DHT22;6692;50.710;7.180;2023-12-04T03:49:32;1.20;99.90
13251;DHT22;6692;50.710;7.180;2023-12-04T03:51:32;1.20;99.90
13251;DHT22;6692;50.710;7.180;2023-12-04T03:53:33;1.20;99.90
13251;DHT22;6692;50.710;7.180;2023-12-04T03:55:34;1.20;99.90
13251;DHT22;6692;50.710;7.180;2023-12-04T03:57:35;1.20;99.90
13251;DHT22;6692;50.710;7.180;2023-12-04T03:59:36;1.20;99.90
13251;DHT22;6692;50.710;7.180;2023-12-04T04:01:37;1.20;99.90
13251;DHT22;6692;50.710;7.180;2023-12-04T04:03:38;1.20;99.90
13251;DHT22;6692;50.710;7.180;2023-12-04T04:05:38;1.20;99.90
13251;DHT22;6692;50.710;7.180;2023-12-04T04:07:39;1.20;99.90
13251;DHT22;6692;50.710;7.180;2023-12-04T04:09:40;1.20;99.90
13251;DHT22;6692;50.710;7.180;2023-12-04T04:11:41;1.20;99.90
13251;DHT22;6692;50.710;7.180;2023-12-04T04:13:41;1.20;99.90
13251;DHT22;6692;50.710;7.180;2023-12-04T04:15:43;1.20;99.90
13251;DHT22;6692;50.710;7.180;2023-12-04T04:17:44;1.20;99.90
13251;DHT22;6692;50.710;7.180;2023-12-04T04:19:45;1.20;99.90
13251;DHT22;6692;50.710;7.180;2023-12-04T04:21:45;1.20;99.90
13251;DHT22;6692;50.710;7.180;2023-12-04T04:23:46;1.20;99.90
13251;DHT22;6692;50.710;7.180;2023-12-04T04:28:12;1.20;99.90
13251;DHT22;6692;50.710;7.180;2023-12-04T04:30:13;1.20;99.90
13251;DHT22;6692;50.710;7.180;2023-12-04T04:32:14;1.20;99.90
13251;DHT22;6692;50.710;7.180;2023-12-04T04:34:15;1.20;99.90
13251;DHT22;6692;50.710;7.180;2023-12-04T04:36:16;1.20;99.90
13251;DHT22;6692;50.710;7.180;2023-12-04T04:38:16;1.20;99.90
13251;DHT22;6692;50.710;7.180;2023-12-04T04:40:17;1.20;99.90
13251;DHT22;6692;50.710;7.180;2023-12-04T04:42:18;1.20;99.90
13251;DHT22;6692;50.710;7.180;2023-12-04T04:44:19;1.10;99.90
13251;DHT22;6692;50.710;7.180;2023-12-04T04:46:20;1.20;99.90
13251;DHT22;6692;50.710;7.180;2023-12-04T04:48:20;1.20;99.90
13251;DHT22;6692;50.710;7.180;2023-12-04T04:50:21;1.20;99.90
13251;DHT22;6692;50.710;7.180;2023-12-04T04:52:23;1.20;99.90
13251;DHT22;6692;50.710;7.180;2023-12-04T04:54:24;1.20;99.90
13251;DHT22;6692;50.710;7.180;2023-12-04T04:56:25;1.20;99.90
13251;DHT22;6692;50.710;7.180;2023-12-04T04:58:26;1.20;99.90
13251;DHT22;6692;50.710;7.180;2023-12-04T05:00:27;1.20;99.90
13251;DHT22;6692;50.710;7.180;2023-12-04T05:02:27;1.20;99.90
13251;DHT22;6692;50.710;7.180;2023-12-04T05:04:28;1.20;99.90
13251;DHT22;6692;50.710;7.180;2023-12-04T05:06:31;1.20;99.90
13251;DHT22;6692;50.710;7.180;2023-12-04T05:08:33;1.20;99.90
13251;DHT22;6692;50.710;7.180;2023-12-04T05:10:34;1.20;99.90
13251;DHT22;6692;50.710;7.180;2023-12-04T05:12:35;1.10;99.90
13251;DHT22;6692;50.710;7.180;2023-12-04T05:14:37;1.10;99.90
13251;DHT22;6692;50.710;7.180;2023-12-04T05:16:37;1.10;99.90
13251;DHT22;6692;50.710;7.180;2023-12-04T05:18:39;1.20;99.90
13251;DHT22;6692;50.710;7.180;2023-12-04T05:20:40;1.20;99.90
13251;DHT22;6692;50.710;7.180;2023-12-04T05:22:41;1.20;99.90
13251;DHT22;6692;50.710;7.180;2023-12-04T05:24:42;1.20;99.90
13251;DHT22;6692;50.710;7.180;2023-12-04T05:26:43;1.20;99.90
13251;DHT22;6692;50.710;7.180;2023-12-04T05:28:43;1.20;99.90
13251;DHT22;6692;50.710;7.180;2023-12-04T05:30:44;1.20;99.90
13251;DHT22;6692;50.710;7.180;2023-12-04T05:32:46;1.20;99.90
13251;DHT22;6692;50.710;7.180;2023-12-04T05:34:48;1.20;99.90
13251;DHT22;6692;50.710;7.180;2023-12-04T05:36:49;1.20;99.90
13251;DHT22;6692;50.710;7.180;2023-12-04T05:38:51;1.20;99.90
13251;DHT22;6692;50.710;7.180;2023-12-04T05:40:52;1.20;99.90
13251;DHT22;6692;50.710;7.180;2023-12-04T05:42:53;1.20;99.90
13251;DHT22;6692;50.710;7.180;2023-12-04T05:44:54;1.30;99.90
13251;DHT22;6692;50.710;7.180;2023-12-04T05:46:56;1.30;99.90
13251;DHT22;6692;50.710;7.180;2023-12-04T05:48:57;1.30;99.90
13251;DHT22;6692;50.710;7.180;2023-12-04T05:50:58;1.30;99.90
13251;DHT22;6692;50.710;7.180;2023-12-04T05:52:59;1.30;99.90
13251;DHT22;6692;50.710;7.180;2023-12-04T05:55:00;1.40;99.90
13251;DHT22;6692;50.710;7.180;2023-12-04T05:57:01;1.40;99.90
13251;DHT22;6692;50.710;7.180;2023-12-04T05:59:01;1.40;99.90
13251;DHT22;6692;50.710;7.180;2023-12-04T06:01:03;1.40;99.90
13251;DHT22;6692;50.710;7.180;2023-12-04T06:03:05;1.40;99.90
13251;DHT22;6692;50.710;7.180;2023-12-04T06:05:07;1.40;99.90
13251;DHT22;6692;50.710;7.180;2023-12-04T06:07:09;1.50;99.90
13251;DHT22;6692;50.710;7.180;2023-12-04T06:09:09;1.50;99.90
13251;DHT22;6692;50.710;7.180;2023-12-04T06:11:10;1.40;99.90
13251;DHT22;6692;50.710;7.180;2023-12-04T06:13:11;1.50;99.90
13251;DHT22;6692;50.710;7.180;2023-12-04T06:15:11;1.50;99.90
13251;DHT22;6692;50.710;7.180;2023-12-04T06:17:12;1.50;99.90
13251;DHT22;6692;50.710;7.180;2023-12-04T06:19:14;1.50;99.90
13251;DHT22;6692;50.710;7.180;2023-12-04T06:21:15;1.50;99.90
13251;DHT22;6692;50.710;7.180;2023-12-04T06:23:17;1.50;99.90
13251;DHT22;6692;50.710;7.180;2023-12-04T06:25:19;1.60;99.90
13251;DHT22;6692;50.710;7.180;2023-12-04T06:27:21;1.50;99.90
13251;DHT22;6692;50.710;7.180;2023-12-04T06:29:23;1.50;99.90
13251;DHT22;6692;50.710;7.180;2023-12-04T06:31:25;1.50;99.90
13251;DHT22;6692;50.710;7.180;2023-12-04T06:33:26;1.50;99.90
13251;DHT22;6692;50.710;7.180;2023-12-04T06:35:28;1.50;99.90
13251;DHT22;6692;50.710;7.180;2023-12-04T06:37:29;1.50;99.90
13251;DHT22;6692;50.710;7.180;2023-12-04T06:39:31;1.50;99.90
13251;DHT22;6692;50.710;7.180;2023-12-04T06:41:31;1.50;99.90
13251;DHT22;6692;50.710;7.180;2023-12-04T06:43:33;1.50;99.90
13251;DHT22;6692;50.710;7.180;2023-12-04T06:45:35;1.50;99.90
13251;DHT22;6692;50.710;7.180;2023-12-04T06:47:37;1.50;99.90
13251;DHT22;6692;50.710;7.180;2023-12-04T06:49:38;1.50;99.90
13251;DHT22;6692;50.710;7.180;2023-12-04T06:51:38;1.50;99.90
13251;DHT22;6692;50.710;7.180;2023-12-04T06:53:39;1.50;99.90
13251;DHT22;6692;50.710;7.180;2023-12-04T06:55:41;1.60;99.90
13251;DHT22;6692;50.710;7.180;2023-12-04T06:57:42;1.60;99.90
13251;DHT22;6692;50.710;7.180;2023-12-04T06:59:42;1.60;99.90
13251;DHT22;6692;50.710;7.180;2023-12-04T07:01:44;1.60;99.90
13251;DHT22;6692;50.710;7.180;2023-12-04T07:03:45;1.60;99.90
13251;DHT22;6692;50.710;7.180;2023-12-04T07:05:46;1.70;99.90
13251;DHT22;6692;50.710;7.180;2023-12-04T07:07:48;1.60;99.90
13251;DHT22;6692;50.710;7.180;2023-12-04T07:09:49;1.60;99.90
13251;DHT22;6692;50.710;7.180;2023-12-04T07:11:49;1.60;99.90
13251;DHT22;6692;50.710;7.180;2023-12-04T07:13:51;1.60;99.90
13251;DHT22;6692;50.710;7.180;2023-12-04T07:15:52;1.60;99.90
13251;DHT22;6692;50.710;7.180;2023-12-04T07:17:54;1.70;99.90
13251;DHT22;6692;50.710;7.180;2023-12-04T07:19:55;1.60;99.90
13251;DHT22;6692;50.710;7.180;2023-12-04T07:21:55;1.60;99.90
13251;DHT22;6692;50.710;7.180;2023-12-04T07:23:56;1.60;99.90
13251;DHT22;6692;50.710;7.180;2023-12-04T07:25:57;1.70;99.90
13251;DHT22;6692;50.710;7.180;2023-12-04T07:27:58;1.70;99.90
13251;DHT22;6692;50.710;7.180;2023-12-04T07:29:59;1.70;99.90
13251;DHT22;6692;50.710;7.180;2023-12-04T07:32:00;1.70;99.90
13251;DHT22;6692;50.710;7.180;2023-12-04T07:34:01;1.70;99.90
13251;DHT22;6692;50.710;7.180;2023-12-04T07:36:02;1.70;99.90
13251;DHT22;6692;50.710;7.180;2023-12-04T07:38:02;1.80;99.90
13251;DHT22;6692;50.710;7.180;2023-12-04T07:40:05;1.80;99.90
13251;DHT22;6692;50.710;7.180;2023-12-04T07:42:07;1.80;99.90
13251;DHT22;6692;50.710;7.180;2023-12-04T07:44:08;1.80;99.90
13251;DHT22;6692;50.710;7.180;2023-12-04T07:46:09;1.80;99.90
13251;DHT22;6692;50.710;7.180;2023-12-04T07:48:10;1.80;99.90
13251;DHT22;6692;50.710;7.180;2023-12-04T07:50:11;1.80;99.90
13251;DHT22;6692;50.710;7.180;2023-12-04T07:52:12;1.80;99.90
13251;DHT22;6692;50.710;7.180;2023-12-04T07:54:13;1.80;99.90
13251;DHT22;6692;50.710;7.180;2023-12-04T07:56:14;1.80;99.90
13251;DHT22;6692;50.710;7.180;2023-12-04T07:58:15;1.80;99.90
13251;DHT22;6692;50.710;7.180;2023-12-04T08:00:16;1.80;99.90
13251;DHT22;6692;50.710;7.180;2023-12-04T08:02:18;1.80;99.90
13251;DHT22;6692;50.710;7.180;2023-12-04T08:04:19;1.80;99.90
13251;DHT22;6692;50.710;7.180;2023-12-04T08:06:20;1.80;99.90
13251;DHT22;6692;50.710;7.180;2023-12-04T08:08:22;1.80;99.90
13251;DHT22;6692;50.710;7.180;2023-12-04T08:10:23;1.80;99.90
13251;DHT22;6692;50.710;7.180;2023-12-04T08:12:24;1.80;99.90
13251;DHT22;6692;50.710;7.180;2023-12-04T08:14:25;1.80;99.90
13251;DHT22;6692;50.710;7.180;2023-12-04T08:16:26;1.80;99.90
13251;DHT22;6692;50.710;7.180;2023-12-04T08:18:26;1.80;99.90
13251;DHT22;6692;50.710;7.180;2023-12-04T08:20:27;1.80;99.90
13251;DHT22;6692;50.710;7.180;2023-12-04T08:22:29;1.80;99.90
13251;DHT22;6692;50.710;7.180;2023-12-04T08:24:29;1.80;99.90
13251;DHT22;6692;50.710;7.180;2023-12-04T08:26:30;1.80;99.90
13251;DHT22;6692;50.710;7.180;2023-12-04T08:28:32;1.80;99.90
13251;DHT22;6692;50.710;7.180;2023-12-04T08:30:32;1.80;99.90
13251;DHT22;6692;50.710;7.180;2023-12-04T08:32:32;1.90;99.90
13251;DHT22;6692;50.710;7.180;2023-12-04T08:34:33;1.90;99.90
13251;DHT22;6692;50.710;7.180;2023-12-04T08:36:34;1.90;99.90
13251;DHT22;6692;50.710;7.180;2023-12-04T08:38:35;1.90;99.90
13251;DHT22;6692;50.710;7.180;2023-12-04T08:40:35;1.90;99.90
13251;DHT22;6692;50.710;7.180;2023-12-04T08:42:37;1.90;99.90
13251;DHT22;6692;50.710;7.180;2023-12-04T08:44:37;1.90;99.90
13251;DHT22;6692;50.710;7.180;2023-12-04T08:46:37;1.90;99.90
13251;DHT22;6692;50.710;7.180;2023-12-04T08:48:39;1.90;99.90
13251;DHT22;6692;50.710;7.180;2023-12-04T08:50:39;1.90;99.90
13251;DHT22;6692;50.710;7.180;2023-12-04T08:52:40;1.90;99.90
13251;DHT22;6692;50.710;7.180;2023-12-04T08:54:40;1.90;99.90
13251;DHT22;6692;50.710;7.180;2023-12-04T08:56:42;1.90;99.90
13251;DHT22;6692;50.710;7.180;2023-12-04T08:58:43;1.90;99.90
13251;DHT22;6692;50.710;7.180;2023-12-04T09:00:43;2.00;99.90
13251;DHT22;6692;50.710;7.180;2023-12-04T09:02:44;2.00;99.90
13251;DHT22;6692;50.710;7.180;2023-12-04T09:04:45;2.00;99.90
13251;DHT22;6692;50.710;7.180;2023-12-04T09:06:46;2.00;99.90
13251;DHT22;6692;50.710;7.180;2023-12-04T09:08:47;2.00;99.90
13251;DHT22;6692;50.710;7.180;2023-12-04T09:10:48;2.00;99.90
13251;DHT22;6692;50.710;7.180;2023-12-04T09:12:48;2.10;99.90
13251;DHT22;6692;50.710;7.180;2023-12-04T09:14:50;2.10;99.90
13251;DHT22;6692;50.710;7.180;2023-12-04T09:16:51;2.10;99.90
13251;DHT22;6692;50.710;7.180;2023-12-04T09:18:52;2.10;99.90
13251;DHT22;6692;50.710;7.180;2023-12-04T09:20:53;2.10;99.90
13251;DHT22;6692;50.710;7.180;2023-12-04T09:22:53;2.10;99.90
13251;DHT22;6692;50.710;7.180;2023-12-04T09:24:54;2.10;99.90
13251;DHT22;6692;50.710;7.180;2023-12-04T09:26:55;2.20;99.90
13251;DHT22;6692;50.710;7.180;2023-12-04T09:28:56;2.20;99.90
13251;DHT22;6692;50.710;7.180;2023-12-04T09:30:56;2.20;99.90
13251;DHT22;6692;50.710;7.180;2023-12-04T09:32:58;2.30;99.90
13251;DHT22;6692;50.710;7.180;2023-12-04T09:34:59;2.30;99.90
13251;DHT22;6692;50.710;7.180;2023-12-04T09:36:59;2.30;99.90
13251;DHT22;6692;50.710;7.180;2023-12-04T09:39:01;2.30;99.90
13251;DHT22;6692;50.710;7.180;2023-12-04T09:41:02;2.30;99.90
13251;DHT22;6692;50.710;7.180;2023-12-04T09:43:03;2.30;99.90
13251;DHT22;6692;50.710;7.180;2023-12-04T09:45:05;2.40;99.90
13251;DHT22;6692;50.710;7.180;2023-12-04T09:47:06;2.40;99.90
13251;DHT22;6692;50.710;7.180;2023-12-04T09:49:06;2.40;99.90
13251;DHT22;6692;50.710;7.180;2023-12-04T09:51:08;2.50;99.90
13251;DHT22;6692;50.710;7.180;2023-12-04T09:53:10;2.50;99.90
13251;DHT22;6692;50.710;7.180;2023-12-04T09:55:10;2.50;99.90
13251;DHT22;6692;50.710;7.180;2023-12-04T09:57:11;2.50;99.90
13251;DHT22;6692;50.710;7.180;2023-12-04T09:59:12;2.50;99.90
13251;DHT22;6692;50.710;7.180;2023-12-04T10:01:13;2.60;99.90
13251;DHT22;6692;50.710;7.180;2023-12-04T10:03:14;2.60;99.90
13251;DHT22;6692;50.710;7.180;2023-12-04T10:05:15;2.60;99.90
13251;DHT22;6692;50.710;7.180;2023-12-04T10:07:16;2.60;99.90
13251;DHT22;6692;50.710;7.180;2023-12-04T10:09:17;2.60;99.90
13251;DHT22;6692;50.710;7.180;2023-12-04T10:11:18;2.60;99.90
13251;DHT22;6692;50.710;7.180;2023-12-04T10:13:19;2.60;99.90
13251;DHT22;6692;50.710;7.180;2023-12-04T10:15:20;2.60;99.90
13251;DHT22;6692;50.710;7.180;2023-12-04T10:17:22;2.70;99.90
13251;DHT22;6692;50.710;7.180;2023-12-04T10:19:26;2.70;99.90
13251;DHT22;6692;50.710;7.180;2023-12-04T10:21:31;2.70;99.90
13251;DHT22;6692;50.710;7.180;2023-12-04T10:23:37;2.70;99.90
13251;DHT22;6692;50.710;7.180;2023-12-04T10:25:36;2.80;99.90
13251;DHT22;6692;50.710;7.180;2023-12-04T10:27:38;2.80;99.90
13251;DHT22;6692;50.710;7.180;2023-12-04T10:29:41;2.80;99.90
13251;DHT22;6692;50.710;7.180;2023-12-04T10:31:41;2.90;99.90
13251;DHT22;6692;50.710;7.180;2023-12-04T10:33:42;2.90;99.90
13251;DHT22;6692;50.710;7.180;2023-12-04T10:35:43;2.90;99.90
13251;DHT22;6692;50.710;7.180;2023-12-04T10:37:44;2.90;99.90
13251;DHT22;6692;50.710;7.180;2023-12-04T10:39:46;3.00;99.90
13251;DHT22;6692;50.710;7.180;2023-12-04T10:41:45;3.00;99.90
13251;DHT22;6692;50.710;7.180;2023-12-04T10:43:47;3.00;99.90
13251;DHT22;6692;50.710;7.180;2023-12-04T10:45:47;3.00;99.90
13251;DHT22;6692;50.710;7.180;2023-12-04T10:47:48;3.00;99.90
13251;DHT22;6692;50.710;7.180;2023-12-04T10:49:49;3.00;99.90
13251;DHT22;6692;50.710;7.180;2023-12-04T10:51:50;3.10;99.90
13251;DHT22;6692;50.710;7.180;2023-12-04T10:53:51;3.00;99.90
13251;DHT22;6692;50.710;7.180;2023-12-04T10:55:52;3.10;99.90
13251;DHT22;6692;50.710;7.180;2023-12-04T10:57:53;3.10;99.90
13251;DHT22;6692;50.710;7.180;2023-12-04T10:59:57;3.10;99.90
13251;DHT22;6692;50.710;7.180;2023-12-04T11:01:58;3.10;99.90
13251;DHT22;6692;50.710;7.180;2023-12-04T11:03:59;3.10;99.90
13251;DHT22;6692;50.710;7.180;2023-12-04T11:06:04;3.10;99.90
13251;DHT22;6692;50.710;7.180;2023-12-04T11:08:08;3.20;99.90
13251;DHT22;6692;50.710;7.180;2023-12-04T11:10:08;3.20;99.90
13251;DHT22;6692;50.710;7.180;2023-12-04T11:12:11;3.20;99.90
13251;DHT22;6692;50.710;7.180;2023-12-04T11:14:11;3.20;99.90
13251;DHT22;6692;50.710;7.180;2023-12-04T11:16:15;3.20;99.90
13251;DHT22;6692;50.710;7.180;2023-12-04T11:18:13;3.20;99.90
13251;DHT22;6692;50.710;7.180;2023-12-04T11:20:16;3.20;99.90
13251;DHT22;6692;50.710;7.180;2023-12-04T11:22:14;3.10;99.90
13251;DHT22;6692;50.710;7.180;2023-12-04T11:24:16;3.20;99.90
13251;DHT22;6692;50.710;7.180;2023-12-04T11:26:16;3.10;99.90
13251;DHT22;6692;50.710;7.180;2023-12-04T11:28:17;3.10;99.90
13251;DHT22;6692;50.710;7.180;2023-12-04T11:30:17;3.10;99.90
13251;DHT22;6692;50.710;7.180;2023-12-04T11:32:18;3.10;99.90
13251;DHT22;6692;50.710;7.180;2023-12-04T11:34:19;3.20;99.90
13251;DHT22;6692;50.710;7.180;2023-12-04T11:36:20;3.30;99.90
13251;DHT22;6692;50.710;7.180;2023-12-04T11:38:21;3.20;99.90
13251;DHT22;6692;50.710;7.180;2023-12-04T11:40:23;3.30;99.90
13251;DHT22;6692;50.710;7.180;2023-12-04T11:42:24;3.30;99.90
13251;DHT22;6692;50.710;7.180;2023-12-04T11:44:25;3.30;99.90
13251;DHT22;6692;50.710;7.180;2023-12-04T11:46:26;3.30;99.90
13251;DHT22;6692;50.710;7.180;2023-12-04T11:48:27;3.30;99.90
13251;DHT22;6692;50.710;7.180;2023-12-04T11:50:29;3.40;99.90
13251;DHT22;6692;50.710;7.180;2023-12-04T11:52:33;3.40;99.90
13251;DHT22;6692;50.710;7.180;2023-12-04T11:59:07;3.40;99.90
13251;DHT22;6692;50.710;7.180;2023-12-04T12:01:08;3.50;99.90
13251;DHT22;6692;50.710;7.180;2023-12-04T12:03:09;3.50;99.90
13251;DHT22;6692;50.710;7.180;2023-12-04T12:05:11;3.60;99.90
13251;DHT22;6692;50.710;7.180;2023-12-04T12:07:12;3.50;99.90
13251;DHT22;6692;50.710;7.180;2023-12-04T12:09:12;3.60;99.90
13251;DHT22;6692;50.710;7.180;2023-12-04T12:11:13;3.60;99.90
13251;DHT22;6692;50.710;7.180;2023-12-04T12:13:14;3.70;99.90
13251;DHT22;6692;50.710;7.180;2023-12-04T12:15:14;3.70;99.90
13251;DHT22;6692;50.710;7.180;2023-12-04T12:17:15;3.70;99.90
13251;DHT22;6692;50.710;7.180;2023-12-04T12:19:16;3.80;99.90
13251;DHT22;6692;50.710;7.180;2023-12-04T12:21:17;3.80;99.90
13251;DHT22;6692;50.710;7.180;2023-12-04T12:23:18;3.80;99.90
13251;DHT22;6692;50.710;7.180;2023-12-04T12:25:19;3.80;99.90
13251;DHT22;6692;50.710;7.180;2023-12-04T12:27:20;3.80;99.90
13251;DHT22;6692;50.710;7.180;2023-12-04T12:29:20;3.90;99.90
13251;DHT22;6692;50.710;7.180;2023-12-04T12:31:21;3.90;99.90
13251;DHT22;6692;50.710;7.180;2023-12-04T12:33:23;3.90;99.90
13251;DHT22;6692;50.710;7.180;2023-12-04T12:35:23;3.90;99.90
13251;DHT22;6692;50.710;7.180;2023-12-04T12:37:24;4.00;99.90
13251;DHT22;6692;50.710;7.180;2023-12-04T12:39:25;4.00;99.90
13251;DHT22;6692;50.710;7.180;2023-12-04T12:41:26;4.00;99.90
13251;DHT22;6692;50.710;7.180;2023-12-04T12:43:27;4.00;99.90
13251;DHT22;6692;50.710;7.180;2023-12-04T12:45:28;4.00;99.90
13251;DHT22;6692;50.710;7.180;2023-12-04T12:47:29;3.90;99.90
13251;DHT22;6692;50.710;7.180;2023-12-04T12:49:29;3.90;99.90
13251;DHT22;6692;50.710;7.180;2023-12-04T12:51:31;3.90;99.90
13251;DHT22;6692;50.710;7.180;2023-12-04T12:53:32;3.90;99.90
13251;DHT22;6692;50.710;7.180;2023-12-04T12:55:33;3.90;99.90
13251;DHT22;6692;50.710;7.180;2023-12-04T12:57:34;3.90;99.90
13251;DHT22;6692;50.710;7.180;2023-12-04T12:59:35;3.90;99.90
13251;DHT22;6692;50.710;7.180;2023-12-04T13:01:36;3.90;99.90
13251;DHT22;6692;50.710;7.180;2023-12-04T13:03:36;3.90;99.90
13251;DHT22;6692;50.710;7.180;2023-12-04T13:05:38;3.90;99.90
13251;DHT22;6692;50.710;7.180;2023-12-04T13:07:40;3.90;99.90
13251;DHT22;6692;50.710;7.180;2023-12-04T13:09:40;3.90;99.90
13251;DHT22;6692;50.710;7.180;2023-12-04T13:11:41;3.90;99.90
13251;DHT22;6692;50.710;7.180;2023-12-04T13:13:43;3.90;99.90
13251;DHT22;6692;50.710;7.180;2023-12-04T13:15:45;3.80;99.90
13251;DHT22;6692;50.710;7.180;2023-12-04T13:17:46;3.80;99.90